sensor_id;sensor_type;location;lat;lon;timestamp;P1;durP1;ratioP1;P2;durP2;ratioP2
17614;SDS011;8926;49.720;6.576;2023-10-31T00:02:24;0.60;;;0.60;;
17614;SDS011;8926;49.720;6.576;2023-10-31T00:04:49;0.80;;;0.80;;
17614;SDS011;8926;49.720;6.576;2023-10-31T00:07:14;0.60;;;0.60;;
17614;SDS011;8926;49.720;6.576;2023-10-31T00:09:40;0.63;;;0.63;;
17614;SDS011;8926;49.720;6.576;2023-10-31T00:12:05;0.70;;;0.70;;
17614;SDS011;8926;49.720;6.576;2023-10-31T00:14:30;0.60;;;0.60;;
17614;SDS011;8926;49.720;6.576;2023-10-31T00:16:56;0.60;;;0.60;;
17614;SDS011;8926;49.720;6.576;2023-10-31T00:19:22;0.60;;;0.60;;
17614;SDS011;8926;49.720;6.576;2023-10-31T00:21:47;0.43;;;0.43;;
17614;SDS011;8926;49.720;6.576;2023-10-31T00:24:12;0.40;;;0.40;;
17614;SDS011;8926;49.720;6.576;2023-10-31T00:26:38;0.30;;;0.30;;
17614;SDS011;8926;49.720;6.576;2023-10-31T00:29:03;0.33;;;0.33;;
17614;SDS011;8926;49.720;6.576;2023-10-31T00:31:28;0.50;;;0.50;;
17614;SDS011;8926;49.720;6.576;2023-10-31T00:33:54;2.63;;;0.43;;
17614;SDS011;8926;49.720;6.576;2023-10-31T00:36:20;0.30;;;0.30;;
17614;SDS011;8926;49.720;6.576;2023-10-31T00:38:46;0.50;;;0.50;;
17614;SDS011;8926;49.720;6.576;2023-10-31T00:41:11;0.40;;;0.40;;
17614;SDS011;8926;49.720;6.576;2023-10-31T00:43:36;0.50;;;0.50;;
17614;SDS011;8926;49.720;6.576;2023-10-31T00:46:02;0.40;;;0.40;;
17614;SDS011;8926;49.720;6.576;2023-10-31T00:48:28;0.40;;;0.40;;
17614;SDS011;8926;49.720;6.576;2023-10-31T00:50:54;0.70;;;0.70;;
17614;SDS011;8926;49.720;6.576;2023-10-31T00:53:19;0.73;;;0.40;;
17614;SDS011;8926;49.720;6.576;2023-10-31T00:55:44;0.47;;;0.47;;
17614;SDS011;8926;49.720;6.576;2023-10-31T00:58:10;0.60;;;0.50;;
17614;SDS011;8926;49.720;6.576;2023-10-31T01:00:35;0.47;;;0.47;;
17614;SDS011;8926;49.720;6.576;2023-10-31T01:03:02;0.20;;;0.20;;
17614;SDS011;8926;49.720;6.576;2023-10-31T01:05:28;0.30;;;0.20;;
17614;SDS011;8926;49.720;6.576;2023-10-31T01:07:53;0.60;;;0.60;;
17614;SDS011;8926;49.720;6.576;2023-10-31T01:10:19;0.47;;;0.47;;
17614;SDS011;8926;49.720;6.576;2023-10-31T01:12:45;0.50;;;0.50;;
17614;SDS011;8926;49.720;6.576;2023-10-31T01:15:10;0.40;;;0.40;;
17614;SDS011;8926;49.720;6.576;2023-10-31T01:17:35;0.80;;;0.50;;
17614;SDS011;8926;49.720;6.576;2023-10-31T01:20:01;0.40;;;0.40;;
17614;SDS011;8926;49.720;6.576;2023-10-31T01:22:26;0.30;;;0.30;;
17614;SDS011;8926;49.720;6.576;2023-10-31T01:24:55;0.60;;;0.57;;
17614;SDS011;8926;49.720;6.576;2023-10-31T01:27:20;0.77;;;0.60;;
17614;SDS011;8926;49.720;6.576;2023-10-31T01:29:45;0.50;;;0.50;;
17614;SDS011;8926;49.720;6.576;2023-10-31T01:32:10;0.63;;;0.43;;
17614;SDS011;8926;49.720;6.576;2023-10-31T01:34:37;0.60;;;0.47;;
17614;SDS011;8926;49.720;6.576;2023-10-31T01:37:02;0.43;;;0.43;;
17614;SDS011;8926;49.720;6.576;2023-10-31T01:39:28;0.30;;;0.30;;
17614;SDS011;8926;49.720;6.576;2023-10-31T01:41:53;0.53;;;0.50;;
17614;SDS011;8926;49.720;6.576;2023-10-31T01:44:19;0.60;;;0.60;;
17614;SDS011;8926;49.720;6.576;2023-10-31T01:46:45;1.13;;;0.67;;
17614;SDS011;8926;49.720;6.576;2023-10-31T01:49:10;1.93;;;0.70;;
17614;SDS011;8926;49.720;6.576;2023-10-31T01:51:35;1.20;;;0.87;;
17614;SDS011;8926;49.720;6.576;2023-10-31T01:54:01;1.43;;;0.70;;
17614;SDS011;8926;49.720;6.576;2023-10-31T01:56:26;0.73;;;0.73;;
17614;SDS011;8926;49.720;6.576;2023-10-31T01:58:52;1.37;;;0.70;;
17614;SDS011;8926;49.720;6.576;2023-10-31T02:01:17;0.50;;;0.50;;
17614;SDS011;8926;49.720;6.576;2023-10-31T02:03:43;1.43;;;0.50;;
17614;SDS011;8926;49.720;6.576;2023-10-31T02:06:08;0.60;;;0.60;;
17614;SDS011;8926;49.720;6.576;2023-10-31T02:08:34;0.70;;;0.67;;
17614;SDS011;8926;49.720;6.576;2023-10-31T02:10:59;1.13;;;0.70;;
17614;SDS011;8926;49.720;6.576;2023-10-31T02:13:25;2.00;;;0.60;;
17614;SDS011;8926;49.720;6.576;2023-10-31T02:15:50;1.03;;;0.60;;
17614;SDS011;8926;49.720;6.576;2023-10-31T02:18:16;1.90;;;1.00;;
17614;SDS011;8926;49.720;6.576;2023-10-31T02:20:42;0.50;;;0.50;;
17614;SDS011;8926;49.720;6.576;2023-10-31T02:23:08;0.97;;;0.70;;
17614;SDS011;8926;49.720;6.576;2023-10-31T02:25:33;1.03;;;0.83;;
17614;SDS011;8926;49.720;6.576;2023-10-31T02:27:58;1.30;;;0.80;;
17614;SDS011;8926;49.720;6.576;2023-10-31T02:30:24;1.00;;;0.90;;
17614;SDS011;8926;49.720;6.576;2023-10-31T02:32:50;2.37;;;0.80;;
17614;SDS011;8926;49.720;6.576;2023-10-31T02:35:15;1.60;;;0.90;;
17614;SDS011;8926;49.720;6.576;2023-10-31T02:37:42;1.03;;;0.93;;
17614;SDS011;8926;49.720;6.576;2023-10-31T02:40:08;0.70;;;0.70;;
17614;SDS011;8926;49.720;6.576;2023-10-31T02:42:33;0.93;;;0.63;;
17614;SDS011;8926;49.720;6.576;2023-10-31T02:44:59;1.00;;;0.60;;
17614;SDS011;8926;49.720;6.576;2023-10-31T02:47:24;0.87;;;0.80;;
17614;SDS011;8926;49.720;6.576;2023-10-31T02:49:49;1.43;;;0.90;;
17614;SDS011;8926;49.720;6.576;2023-10-31T02:52:15;1.10;;;0.60;;
17614;SDS011;8926;49.720;6.576;2023-10-31T02:54:40;0.60;;;0.60;;
17614;SDS011;8926;49.720;6.576;2023-10-31T02:57:05;0.60;;;0.60;;
17614;SDS011;8926;49.720;6.576;2023-10-31T02:59:31;0.87;;;0.53;;
17614;SDS011;8926;49.720;6.576;2023-10-31T03:01:56;0.50;;;0.50;;
17614;SDS011;8926;49.720;6.576;2023-10-31T03:04:22;0.90;;;0.70;;
17614;SDS011;8926;49.720;6.576;2023-10-31T03:06:47;0.70;;;0.70;;
17614;SDS011;8926;49.720;6.576;2023-10-31T03:09:13;1.13;;;0.70;;
17614;SDS011;8926;49.720;6.576;2023-10-31T03:11:38;0.70;;;0.70;;
17614;SDS011;8926;49.720;6.576;2023-10-31T03:14:03;0.60;;;0.60;;
17614;SDS011;8926;49.720;6.576;2023-10-31T03:16:29;1.00;;;0.90;;
17614;SDS011;8926;49.720;6.576;2023-10-31T03:18:54;1.53;;;1.13;;
17614;SDS011;8926;49.720;6.576;2023-10-31T03:21:19;0.70;;;0.70;;
17614;SDS011;8926;49.720;6.576;2023-10-31T03:23:48;1.87;;;0.80;;
17614;SDS011;8926;49.720;6.576;2023-10-31T03:26:15;0.60;;;0.60;;
17614;SDS011;8926;49.720;6.576;2023-10-31T03:28:42;1.13;;;0.73;;
17614;SDS011;8926;49.720;6.576;2023-10-31T03:31:08;1.10;;;1.00;;
17614;SDS011;8926;49.720;6.576;2023-10-31T03:33:34;0.70;;;0.70;;
17614;SDS011;8926;49.720;6.576;2023-10-31T03:35:59;0.53;;;0.53;;
17614;SDS011;8926;49.720;6.576;2023-10-31T03:38:25;0.50;;;0.50;;
17614;SDS011;8926;49.720;6.576;2023-10-31T03:40:50;0.60;;;0.60;;
17614;SDS011;8926;49.720;6.576;2023-10-31T03:43:15;0.47;;;0.43;;
17614;SDS011;8926;49.720;6.576;2023-10-31T03:45:40;0.50;;;0.50;;
17614;SDS011;8926;49.720;6.576;2023-10-31T03:48:06;0.60;;;0.57;;
17614;SDS011;8926;49.720;6.576;2023-10-31T03:50:31;1.60;;;0.80;;
17614;SDS011;8926;49.720;6.576;2023-10-31T03:52:56;0.57;;;0.57;;
17614;SDS011;8926;49.720;6.576;2023-10-31T03:55:21;0.60;;;0.60;;
17614;SDS011;8926;49.720;6.576;2023-10-31T03:57:47;1.00;;;0.80;;
17614;SDS011;8926;49.720;6.576;2023-10-31T04:00:12;0.70;;;0.70;;
17614;SDS011;8926;49.720;6.576;2023-10-31T04:02:39;0.60;;;0.60;;
17614;SDS011;8926;49.720;6.576;2023-10-31T04:05:05;0.73;;;0.70;;
17614;SDS011;8926;49.720;6.576;2023-10-31T04:07:31;0.47;;;0.47;;
17614;SDS011;8926;49.720;6.576;2023-10-31T04:09:57;0.70;;;0.70;;
17614;SDS011;8926;49.720;6.576;2023-10-31T04:12:22;0.40;;;0.40;;
17614;SDS011;8926;49.720;6.576;2023-10-31T04:14:47;0.43;;;0.43;;
17614;SDS011;8926;49.720;6.576;2023-10-31T04:17:12;1.63;;;0.70;;
17614;SDS011;8926;49.720;6.576;2023-10-31T04:19:38;0.90;;;0.80;;
17614;SDS011;8926;49.720;6.576;2023-10-31T04:22:03;2.83;;;0.90;;
17614;SDS011;8926;49.720;6.576;2023-10-31T04:24:28;0.60;;;0.50;;
17614;SDS011;8926;49.720;6.576;2023-10-31T04:26:54;0.93;;;0.90;;
17614;SDS011;8926;49.720;6.576;2023-10-31T04:29:19;2.63;;;0.80;;
17614;SDS011;8926;49.720;6.576;2023-10-31T04:31:44;0.93;;;0.80;;
17614;SDS011;8926;49.720;6.576;2023-10-31T04:34:10;0.70;;;0.70;;
17614;SDS011;8926;49.720;6.576;2023-10-31T04:36:35;0.70;;;0.70;;
17614;SDS011;8926;49.720;6.576;2023-10-31T04:39:01;1.00;;;0.70;;
17614;SDS011;8926;49.720;6.576;2023-10-31T04:41:26;1.17;;;0.80;;
17614;SDS011;8926;49.720;6.576;2023-10-31T04:43:51;0.93;;;0.90;;
17614;SDS011;8926;49.720;6.576;2023-10-31T04:46:17;1.57;;;1.00;;
17614;SDS011;8926;49.720;6.576;2023-10-31T04:48:42;1.00;;;0.83;;
17614;SDS011;8926;49.720;6.576;2023-10-31T04:51:07;1.67;;;0.97;;
17614;SDS011;8926;49.720;6.576;2023-10-31T04:53:33;0.73;;;0.73;;
17614;SDS011;8926;49.720;6.576;2023-10-31T04:55:59;0.70;;;0.70;;
17614;SDS011;8926;49.720;6.576;2023-10-31T04:58:24;0.77;;;0.77;;
17614;SDS011;8926;49.720;6.576;2023-10-31T05:00:50;2.50;;;1.07;;
17614;SDS011;8926;49.720;6.576;2023-10-31T05:03:15;0.83;;;0.83;;
17614;SDS011;8926;49.720;6.576;2023-10-31T05:05:40;2.50;;;0.90;;
17614;SDS011;8926;49.720;6.576;2023-10-31T05:08:06;0.67;;;0.67;;
17614;SDS011;8926;49.720;6.576;2023-10-31T05:10:31;1.27;;;0.93;;
17614;SDS011;8926;49.720;6.576;2023-10-31T05:12:56;0.83;;;0.83;;
17614;SDS011;8926;49.720;6.576;2023-10-31T05:15:22;0.60;;;0.60;;
17614;SDS011;8926;49.720;6.576;2023-10-31T05:17:47;0.60;;;0.60;;
17614;SDS011;8926;49.720;6.576;2023-10-31T05:20:12;0.63;;;0.53;;
17614;SDS011;8926;49.720;6.576;2023-10-31T05:22:38;0.60;;;0.60;;
17614;SDS011;8926;49.720;6.576;2023-10-31T05:25:06;0.83;;;0.70;;
17614;SDS011;8926;49.720;6.576;2023-10-31T05:27:32;1.20;;;1.10;;
17614;SDS011;8926;49.720;6.576;2023-10-31T05:29:57;1.73;;;1.00;;
17614;SDS011;8926;49.720;6.576;2023-10-31T05:32:23;1.23;;;1.00;;
17614;SDS011;8926;49.720;6.576;2023-10-31T05:34:48;0.73;;;0.70;;
17614;SDS011;8926;49.720;6.576;2023-10-31T05:37:13;0.80;;;0.80;;
17614;SDS011;8926;49.720;6.576;2023-10-31T05:39:39;2.00;;;0.80;;
17614;SDS011;8926;49.720;6.576;2023-10-31T05:42:04;1.20;;;1.07;;
17614;SDS011;8926;49.720;6.576;2023-10-31T05:44:29;1.33;;;1.00;;
17614;SDS011;8926;49.720;6.576;2023-10-31T05:46:54;1.20;;;1.10;;
17614;SDS011;8926;49.720;6.576;2023-10-31T05:49:20;0.97;;;0.97;;
17614;SDS011;8926;49.720;6.576;2023-10-31T05:51:51;1.00;;;0.90;;
17614;SDS011;8926;49.720;6.576;2023-10-31T05:54:17;1.07;;;0.97;;
17614;SDS011;8926;49.720;6.576;2023-10-31T05:56:42;1.90;;;1.30;;
17614;SDS011;8926;49.720;6.576;2023-10-31T05:59:08;0.80;;;0.80;;
17614;SDS011;8926;49.720;6.576;2023-10-31T06:01:33;1.23;;;0.90;;
17614;SDS011;8926;49.720;6.576;2023-10-31T06:03:58;1.50;;;1.13;;
17614;SDS011;8926;49.720;6.576;2023-10-31T06:06:24;1.00;;;1.00;;
17614;SDS011;8926;49.720;6.576;2023-10-31T06:08:49;2.00;;;0.80;;
17614;SDS011;8926;49.720;6.576;2023-10-31T06:11:14;1.63;;;0.87;;
17614;SDS011;8926;49.720;6.576;2023-10-31T06:13:40;0.67;;;0.60;;
17614;SDS011;8926;49.720;6.576;2023-10-31T06:16:06;1.13;;;1.07;;
17614;SDS011;8926;49.720;6.576;2023-10-31T06:18:32;1.70;;;1.60;;
17614;SDS011;8926;49.720;6.576;2023-10-31T06:20:57;1.97;;;1.10;;
17614;SDS011;8926;49.720;6.576;2023-10-31T06:23:23;1.00;;;0.90;;
17614;SDS011;8926;49.720;6.576;2023-10-31T06:25:48;0.90;;;0.90;;
17614;SDS011;8926;49.720;6.576;2023-10-31T06:28:14;1.17;;;0.70;;
17614;SDS011;8926;49.720;6.576;2023-10-31T06:30:39;0.80;;;0.80;;
17614;SDS011;8926;49.720;6.576;2023-10-31T06:33:04;0.70;;;0.70;;
17614;SDS011;8926;49.720;6.576;2023-10-31T06:35:29;0.60;;;0.60;;
17614;SDS011;8926;49.720;6.576;2023-10-31T06:37:55;0.30;;;0.30;;
17614;SDS011;8926;49.720;6.576;2023-10-31T06:40:25;0.50;;;0.50;;
17614;SDS011;8926;49.720;6.576;2023-10-31T06:42:50;2.73;;;1.10;;
17614;SDS011;8926;49.720;6.576;2023-10-31T06:45:16;1.07;;;0.93;;
17614;SDS011;8926;49.720;6.576;2023-10-31T06:47:41;1.30;;;0.93;;
17614;SDS011;8926;49.720;6.576;2023-10-31T06:50:07;2.50;;;1.17;;
17614;SDS011;8926;49.720;6.576;2023-10-31T06:52:33;1.73;;;1.17;;
17614;SDS011;8926;49.720;6.576;2023-10-31T06:54:58;1.47;;;1.00;;
17614;SDS011;8926;49.720;6.576;2023-10-31T06:57:23;1.33;;;1.07;;
17614;SDS011;8926;49.720;6.576;2023-10-31T06:59:49;1.20;;;0.73;;
17614;SDS011;8926;49.720;6.576;2023-10-31T07:02:14;1.63;;;1.00;;
17614;SDS011;8926;49.720;6.576;2023-10-31T07:04:39;1.43;;;1.00;;
17614;SDS011;8926;49.720;6.576;2023-10-31T07:07:05;1.13;;;0.90;;
17614;SDS011;8926;49.720;6.576;2023-10-31T07:09:30;1.60;;;1.20;;
17614;SDS011;8926;49.720;6.576;2023-10-31T07:11:55;0.90;;;0.80;;
17614;SDS011;8926;49.720;6.576;2023-10-31T07:14:21;1.60;;;1.00;;
17614;SDS011;8926;49.720;6.576;2023-10-31T07:16:47;3.10;;;1.37;;
17614;SDS011;8926;49.720;6.576;2023-10-31T07:19:13;1.53;;;1.27;;
17614;SDS011;8926;49.720;6.576;2023-10-31T07:21:38;1.20;;;1.00;;
17614;SDS011;8926;49.720;6.576;2023-10-31T07:24:03;1.20;;;1.07;;
17614;SDS011;8926;49.720;6.576;2023-10-31T07:26:29;0.87;;;0.80;;
17614;SDS011;8926;49.720;6.576;2023-10-31T07:28:54;0.60;;;0.60;;
17614;SDS011;8926;49.720;6.576;2023-10-31T07:31:19;0.80;;;0.80;;
17614;SDS011;8926;49.720;6.576;2023-10-31T07:33:45;0.70;;;0.60;;
17614;SDS011;8926;49.720;6.576;2023-10-31T07:36:10;1.70;;;0.80;;
17614;SDS011;8926;49.720;6.576;2023-10-31T07:38:36;0.33;;;0.33;;
17614;SDS011;8926;49.720;6.576;2023-10-31T07:41:01;1.13;;;0.67;;
17614;SDS011;8926;49.720;6.576;2023-10-31T07:43:27;2.03;;;1.03;;
17614;SDS011;8926;49.720;6.576;2023-10-31T07:45:52;1.17;;;0.93;;
17614;SDS011;8926;49.720;6.576;2023-10-31T07:48:17;1.80;;;1.10;;
17614;SDS011;8926;49.720;6.576;2023-10-31T07:50:42;1.57;;;0.80;;
17614;SDS011;8926;49.720;6.576;2023-10-31T07:53:08;0.87;;;0.80;;
17614;SDS011;8926;49.720;6.576;2023-10-31T07:55:33;1.33;;;1.00;;
17614;SDS011;8926;49.720;6.576;2023-10-31T07:57:58;2.20;;;0.90;;
17614;SDS011;8926;49.720;6.576;2023-10-31T08:00:24;1.47;;;0.90;;
17614;SDS011;8926;49.720;6.576;2023-10-31T08:02:50;1.90;;;0.90;;
17614;SDS011;8926;49.720;6.576;2023-10-31T08:05:15;1.53;;;0.90;;
17614;SDS011;8926;49.720;6.576;2023-10-31T08:07:40;0.80;;;0.80;;
17614;SDS011;8926;49.720;6.576;2023-10-31T08:10:06;1.50;;;1.17;;
17614;SDS011;8926;49.720;6.576;2023-10-31T08:12:31;1.03;;;0.90;;
17614;SDS011;8926;49.720;6.576;2023-10-31T08:14:57;0.90;;;0.77;;
17614;SDS011;8926;49.720;6.576;2023-10-31T08:17:23;0.80;;;0.77;;
17614;SDS011;8926;49.720;6.576;2023-10-31T08:19:49;1.10;;;0.90;;
17614;SDS011;8926;49.720;6.576;2023-10-31T08:22:14;2.30;;;1.10;;
17614;SDS011;8926;49.720;6.576;2023-10-31T08:24:39;1.73;;;1.00;;
17614;SDS011;8926;49.720;6.576;2023-10-31T08:27:05;1.57;;;0.80;;
17614;SDS011;8926;49.720;6.576;2023-10-31T08:29:31;2.30;;;0.90;;
17614;SDS011;8926;49.720;6.576;2023-10-31T08:31:56;2.07;;;1.00;;
17614;SDS011;8926;49.720;6.576;2023-10-31T08:34:22;2.53;;;1.30;;
17614;SDS011;8926;49.720;6.576;2023-10-31T08:36:47;2.30;;;1.00;;
17614;SDS011;8926;49.720;6.576;2023-10-31T08:39:12;1.73;;;0.90;;
17614;SDS011;8926;49.720;6.576;2023-10-31T08:41:48;1.10;;;0.80;;
17614;SDS011;8926;49.720;6.576;2023-10-31T08:44:16;2.83;;;0.90;;
17614;SDS011;8926;49.720;6.576;2023-10-31T08:46:41;2.67;;;1.20;;
17614;SDS011;8926;49.720;6.576;2023-10-31T08:49:07;1.70;;;1.07;;
17614;SDS011;8926;49.720;6.576;2023-10-31T08:51:33;1.67;;;0.50;;
17614;SDS011;8926;49.720;6.576;2023-10-31T08:53:58;2.13;;;1.00;;
17614;SDS011;8926;49.720;6.576;2023-10-31T08:56:23;2.40;;;1.00;;
17614;SDS011;8926;49.720;6.576;2023-10-31T08:58:49;1.93;;;0.93;;
17614;SDS011;8926;49.720;6.576;2023-10-31T09:01:14;1.07;;;0.83;;
17614;SDS011;8926;49.720;6.576;2023-10-31T09:03:39;1.90;;;0.80;;
17614;SDS011;8926;49.720;6.576;2023-10-31T09:06:05;1.37;;;0.80;;
17614;SDS011;8926;49.720;6.576;2023-10-31T09:08:30;1.57;;;1.00;;
17614;SDS011;8926;49.720;6.576;2023-10-31T09:10:56;1.57;;;1.00;;
17614;SDS011;8926;49.720;6.576;2023-10-31T09:13:21;4.90;;;1.30;;
17614;SDS011;8926;49.720;6.576;2023-10-31T09:15:46;3.17;;;1.13;;
17614;SDS011;8926;49.720;6.576;2023-10-31T09:18:12;1.20;;;1.10;;
17614;SDS011;8926;49.720;6.576;2023-10-31T09:20:38;2.00;;;1.17;;
17614;SDS011;8926;49.720;6.576;2023-10-31T09:23:03;3.00;;;1.20;;
17614;SDS011;8926;49.720;6.576;2023-10-31T09:25:28;3.53;;;1.20;;
17614;SDS011;8926;49.720;6.576;2023-10-31T09:27:55;2.50;;;1.40;;
17614;SDS011;8926;49.720;6.576;2023-10-31T09:30:20;1.77;;;1.10;;
17614;SDS011;8926;49.720;6.576;2023-10-31T09:32:45;4.40;;;1.43;;
17614;SDS011;8926;49.720;6.576;2023-10-31T09:35:11;2.07;;;1.13;;
17614;SDS011;8926;49.720;6.576;2023-10-31T09:37:38;4.07;;;1.37;;
17614;SDS011;8926;49.720;6.576;2023-10-31T09:40:04;6.53;;;1.63;;
17614;SDS011;8926;49.720;6.576;2023-10-31T09:42:30;2.13;;;1.10;;
17614;SDS011;8926;49.720;6.576;2023-10-31T09:44:55;3.90;;;1.30;;
17614;SDS011;8926;49.720;6.576;2023-10-31T09:47:20;4.13;;;1.57;;
17614;SDS011;8926;49.720;6.576;2023-10-31T09:49:47;2.67;;;1.40;;
17614;SDS011;8926;49.720;6.576;2023-10-31T09:52:12;3.63;;;1.53;;
17614;SDS011;8926;49.720;6.576;2023-10-31T09:54:38;2.83;;;1.40;;
17614;SDS011;8926;49.720;6.576;2023-10-31T09:57:04;3.27;;;1.33;;
17614;SDS011;8926;49.720;6.576;2023-10-31T09:59:29;4.77;;;1.70;;
17614;SDS011;8926;49.720;6.576;2023-10-31T10:01:55;3.77;;;1.20;;
17614;SDS011;8926;49.720;6.576;2023-10-31T10:04:21;4.23;;;1.50;;
17614;SDS011;8926;49.720;6.576;2023-10-31T10:06:50;2.87;;;1.50;;
17614;SDS011;8926;49.720;6.576;2023-10-31T10:09:16;3.67;;;1.30;;
17614;SDS011;8926;49.720;6.576;2023-10-31T10:11:41;1.83;;;1.10;;
17614;SDS011;8926;49.720;6.576;2023-10-31T10:14:07;1.33;;;0.80;;
17614;SDS011;8926;49.720;6.576;2023-10-31T10:16:35;2.50;;;1.00;;
17614;SDS011;8926;49.720;6.576;2023-10-31T10:19:16;1.20;;;0.90;;
17614;SDS011;8926;49.720;6.576;2023-10-31T10:21:56;1.70;;;0.80;;
17614;SDS011;8926;49.720;6.576;2023-10-31T10:24:22;1.83;;;0.63;;
17614;SDS011;8926;49.720;6.576;2023-10-31T10:26:52;3.57;;;0.80;;
17614;SDS011;8926;49.720;6.576;2023-10-31T10:29:17;1.90;;;0.60;;
17614;SDS011;8926;49.720;6.576;2023-10-31T10:31:43;0.70;;;0.53;;
17614;SDS011;8926;49.720;6.576;2023-10-31T10:34:13;0.60;;;0.50;;
17614;SDS011;8926;49.720;6.576;2023-10-31T10:36:40;2.23;;;0.30;;
17614;SDS011;8926;49.720;6.576;2023-10-31T10:39:06;2.03;;;0.40;;
17614;SDS011;8926;49.720;6.576;2023-10-31T10:41:33;1.20;;;0.50;;
17614;SDS011;8926;49.720;6.576;2023-10-31T10:44:04;1.63;;;0.50;;
17614;SDS011;8926;49.720;6.576;2023-10-31T10:46:32;0.80;;;0.40;;
17614;SDS011;8926;49.720;6.576;2023-10-31T10:48:59;1.60;;;0.60;;
17614;SDS011;8926;49.720;6.576;2023-10-31T10:51:29;0.40;;;0.33;;
17614;SDS011;8926;49.720;6.576;2023-10-31T10:54:26;0.43;;;0.30;;
17614;SDS011;8926;49.720;6.576;2023-10-31T10:57:09;1.23;;;0.60;;
17614;SDS011;8926;49.720;6.576;2023-10-31T10:59:43;1.03;;;0.60;;
17614;SDS011;8926;49.720;6.576;2023-10-31T11:02:17;0.47;;;0.43;;
17614;SDS011;8926;49.720;6.576;2023-10-31T11:04:43;0.30;;;0.30;;
17614;SDS011;8926;49.720;6.576;2023-10-31T11:07:09;0.97;;;0.43;;
17614;SDS011;8926;49.720;6.576;2023-10-31T11:09:34;0.77;;;0.60;;
17614;SDS011;8926;49.720;6.576;2023-10-31T11:12:02;0.93;;;0.60;;
17614;SDS011;8926;49.720;6.576;2023-10-31T11:14:27;0.37;;;0.30;;
17614;SDS011;8926;49.720;6.576;2023-10-31T11:16:55;1.20;;;0.70;;
17614;SDS011;8926;49.720;6.576;2023-10-31T11:19:25;0.80;;;0.70;;
17614;SDS011;8926;49.720;6.576;2023-10-31T11:22:02;0.50;;;0.50;;
17614;SDS011;8926;49.720;6.576;2023-10-31T11:24:37;1.63;;;0.70;;
17614;SDS011;8926;49.720;6.576;2023-10-31T11:27:03;0.43;;;0.33;;
17614;SDS011;8926;49.720;6.576;2023-10-31T11:29:30;2.40;;;0.90;;
17614;SDS011;8926;49.720;6.576;2023-10-31T11:31:56;1.03;;;0.57;;
17614;SDS011;8926;49.720;6.576;2023-10-31T11:34:22;1.33;;;0.70;;
17614;SDS011;8926;49.720;6.576;2023-10-31T11:36:48;0.70;;;0.50;;
17614;SDS011;8926;49.720;6.576;2023-10-31T11:39:17;2.10;;;0.70;;
17614;SDS011;8926;49.720;6.576;2023-10-31T11:41:48;0.70;;;0.40;;
17614;SDS011;8926;49.720;6.576;2023-10-31T11:44:17;0.63;;;0.60;;
17614;SDS011;8926;49.720;6.576;2023-10-31T11:46:43;1.07;;;0.73;;
17614;SDS011;8926;49.720;6.576;2023-10-31T11:49:12;0.47;;;0.43;;
17614;SDS011;8926;49.720;6.576;2023-10-31T11:51:38;0.50;;;0.47;;
17614;SDS011;8926;49.720;6.576;2023-10-31T11:54:03;1.63;;;0.50;;
17614;SDS011;8926;49.720;6.576;2023-10-31T11:56:33;0.60;;;0.47;;
17614;SDS011;8926;49.720;6.576;2023-10-31T11:59:01;0.57;;;0.50;;
17614;SDS011;8926;49.720;6.576;2023-10-31T12:01:27;1.53;;;0.63;;
17614;SDS011;8926;49.720;6.576;2023-10-31T12:03:53;0.77;;;0.70;;
17614;SDS011;8926;49.720;6.576;2023-10-31T12:06:19;1.27;;;0.60;;
17614;SDS011;8926;49.720;6.576;2023-10-31T12:08:46;1.27;;;0.53;;
17614;SDS011;8926;49.720;6.576;2023-10-31T12:11:18;0.90;;;0.60;;
17614;SDS011;8926;49.720;6.576;2023-10-31T12:13:52;0.70;;;0.50;;
17614;SDS011;8926;49.720;6.576;2023-10-31T12:16:24;1.10;;;0.50;;
17614;SDS011;8926;49.720;6.576;2023-10-31T12:18:54;0.93;;;0.50;;
17614;SDS011;8926;49.720;6.576;2023-10-31T12:21:41;0.40;;;0.40;;
17614;SDS011;8926;49.720;6.576;2023-10-31T12:24:11;0.80;;;0.50;;
17614;SDS011;8926;49.720;6.576;2023-10-31T12:26:37;0.50;;;0.50;;
17614;SDS011;8926;49.720;6.576;2023-10-31T12:29:10;1.47;;;0.90;;
17614;SDS011;8926;49.720;6.576;2023-10-31T12:31:42;1.47;;;0.60;;
17614;SDS011;8926;49.720;6.576;2023-10-31T12:34:10;0.80;;;0.50;;
17614;SDS011;8926;49.720;6.576;2023-10-31T12:36:36;0.90;;;0.60;;
17614;SDS011;8926;49.720;6.576;2023-10-31T12:39:03;1.13;;;0.60;;
17614;SDS011;8926;49.720;6.576;2023-10-31T12:41:30;1.17;;;0.50;;
17614;SDS011;8926;49.720;6.576;2023-10-31T12:43:56;0.93;;;0.60;;
17614;SDS011;8926;49.720;6.576;2023-10-31T12:46:26;0.73;;;0.60;;
17614;SDS011;8926;49.720;6.576;2023-10-31T12:48:51;1.50;;;0.63;;
17614;SDS011;8926;49.720;6.576;2023-10-31T12:51:16;0.60;;;0.60;;
17614;SDS011;8926;49.720;6.576;2023-10-31T12:53:42;0.60;;;0.60;;
17614;SDS011;8926;49.720;6.576;2023-10-31T12:56:34;1.70;;;0.57;;
17614;SDS011;8926;49.720;6.576;2023-10-31T12:59:08;1.27;;;0.63;;
17614;SDS011;8926;49.720;6.576;2023-10-31T13:01:36;1.07;;;0.60;;
17614;SDS011;8926;49.720;6.576;2023-10-31T13:04:04;0.50;;;0.50;;
17614;SDS011;8926;49.720;6.576;2023-10-31T13:06:31;1.60;;;0.50;;
17614;SDS011;8926;49.720;6.576;2023-10-31T13:08:56;0.70;;;0.57;;
17614;SDS011;8926;49.720;6.576;2023-10-31T13:11:22;0.70;;;0.40;;
17614;SDS011;8926;49.720;6.576;2023-10-31T13:13:51;0.57;;;0.50;;
17614;SDS011;8926;49.720;6.576;2023-10-31T13:16:17;1.27;;;0.40;;
17614;SDS011;8926;49.720;6.576;2023-10-31T13:18:43;2.00;;;0.40;;
17614;SDS011;8926;49.720;6.576;2023-10-31T13:21:08;1.33;;;0.40;;
17614;SDS011;8926;49.720;6.576;2023-10-31T13:23:35;1.73;;;0.97;;
17614;SDS011;8926;49.720;6.576;2023-10-31T13:26:03;1.77;;;0.50;;
17614;SDS011;8926;49.720;6.576;2023-10-31T13:28:28;1.10;;;0.60;;
17614;SDS011;8926;49.720;6.576;2023-10-31T13:30:55;0.80;;;0.53;;
17614;SDS011;8926;49.720;6.576;2023-10-31T13:33:21;1.23;;;0.60;;
17614;SDS011;8926;49.720;6.576;2023-10-31T13:35:46;0.70;;;0.60;;
17614;SDS011;8926;49.720;6.576;2023-10-31T13:38:12;0.67;;;0.47;;
17614;SDS011;8926;49.720;6.576;2023-10-31T13:40:37;0.77;;;0.57;;
17614;SDS011;8926;49.720;6.576;2023-10-31T13:43:02;1.23;;;0.80;;
17614;SDS011;8926;49.720;6.576;2023-10-31T13:45:29;0.50;;;0.50;;
17614;SDS011;8926;49.720;6.576;2023-10-31T13:47:55;0.53;;;0.50;;
17614;SDS011;8926;49.720;6.576;2023-10-31T13:50:20;0.97;;;0.50;;
17614;SDS011;8926;49.720;6.576;2023-10-31T13:52:45;1.23;;;0.77;;
17614;SDS011;8926;49.720;6.576;2023-10-31T13:55:11;1.33;;;0.90;;
17614;SDS011;8926;49.720;6.576;2023-10-31T13:57:36;0.60;;;0.53;;
17614;SDS011;8926;49.720;6.576;2023-10-31T14:00:02;1.27;;;0.50;;
17614;SDS011;8926;49.720;6.576;2023-10-31T14:02:28;2.23;;;0.80;;
17614;SDS011;8926;49.720;6.576;2023-10-31T14:04:53;1.00;;;0.70;;
17614;SDS011;8926;49.720;6.576;2023-10-31T14:07:21;0.97;;;0.77;;
17614;SDS011;8926;49.720;6.576;2023-10-31T14:09:48;0.70;;;0.70;;
17614;SDS011;8926;49.720;6.576;2023-10-31T14:12:13;0.93;;;0.70;;
17614;SDS011;8926;49.720;6.576;2023-10-31T14:14:39;1.37;;;0.60;;
17614;SDS011;8926;49.720;6.576;2023-10-31T14:17:04;0.50;;;0.50;;
17614;SDS011;8926;49.720;6.576;2023-10-31T14:19:30;0.50;;;0.50;;
17614;SDS011;8926;49.720;6.576;2023-10-31T14:21:55;0.50;;;0.50;;
17614;SDS011;8926;49.720;6.576;2023-10-31T14:24:20;0.87;;;0.70;;
17614;SDS011;8926;49.720;6.576;2023-10-31T14:26:47;1.40;;;0.77;;
17614;SDS011;8926;49.720;6.576;2023-10-31T14:29:12;2.10;;;0.70;;
17614;SDS011;8926;49.720;6.576;2023-10-31T14:31:38;1.97;;;0.60;;
17614;SDS011;8926;49.720;6.576;2023-10-31T14:34:05;0.63;;;0.50;;
17614;SDS011;8926;49.720;6.576;2023-10-31T14:36:30;1.63;;;0.80;;
17614;SDS011;8926;49.720;6.576;2023-10-31T14:38:55;5.97;;;1.00;;
17614;SDS011;8926;49.720;6.576;2023-10-31T14:41:21;1.73;;;0.60;;
17614;SDS011;8926;49.720;6.576;2023-10-31T14:43:46;1.43;;;0.90;;
17614;SDS011;8926;49.720;6.576;2023-10-31T14:46:11;2.67;;;1.03;;
17614;SDS011;8926;49.720;6.576;2023-10-31T14:48:37;0.97;;;0.97;;
17614;SDS011;8926;49.720;6.576;2023-10-31T14:51:02;1.43;;;1.33;;
17614;SDS011;8926;49.720;6.576;2023-10-31T14:53:28;1.77;;;1.23;;
17614;SDS011;8926;49.720;6.576;2023-10-31T14:55:53;1.97;;;1.00;;